createdAt,value
2023-03-24T00:01:12.713Z,13.40
2023-03-24T00:03:41.686Z,13.30
2023-03-24T00:06:13.823Z,13.30
2023-03-24T00:08:44.471Z,13.30
2023-03-24T00:11:14.488Z,13.20
2023-03-24T00:13:43.019Z,13.20
2023-03-24T00:16:14.213Z,13.20
2023-03-24T00:18:43.112Z,13.20
2023-03-24T00:21:13.604Z,13.20
2023-03-24T00:23:42.990Z,13.20
2023-03-24T00:26:15.624Z,13.10
2023-03-24T00:28:45.939Z,13.20
2023-03-24T00:31:16.045Z,13.30
2023-03-24T00:33:48.350Z,13.30
2023-03-24T00:36:20.645Z,13.30
2023-03-24T00:38:50.390Z,13.30
2023-03-24T00:41:20.099Z,13.20
2023-03-24T00:43:48.969Z,13.30
2023-03-24T00:46:28.721Z,13.30
2023-03-24T00:49:02.384Z,13.30
2023-03-24T00:51:33.918Z,13.30
2023-03-24T00:54:02.817Z,13.40
2023-03-24T00:56:32.864Z,13.40
2023-03-24T00:59:02.574Z,13.40
2023-03-24T01:01:35.383Z,13.40
2023-03-24T01:04:08.616Z,13.50
2023-03-24T01:06:39.440Z,13.50
2023-03-24T01:09:08.557Z,13.60
2023-03-24T01:11:40.342Z,13.50
2023-03-24T01:14:09.790Z,13.50
2023-03-24T01:16:38.674Z,13.50
2023-03-24T01:19:09.352Z,13.60
2023-03-24T01:21:42.326Z,13.50
2023-03-24T01:24:11.120Z,13.50
2023-03-24T01:26:39.583Z,13.50
2023-03-24T01:29:08.159Z,13.50
2023-03-24T01:31:37.038Z,13.30
2023-03-24T01:34:05.731Z,13.20
2023-03-24T01:36:34.316Z,13.10
2023-03-24T01:39:05.361Z,12.90
2023-03-24T01:41:38.324Z,12.70
2023-03-24T01:44:26.636Z,12.50
2023-03-24T01:46:55.565Z,12.30
2023-03-24T01:49:25.996Z,12.20
2023-03-24T01:51:57.328Z,12.00
2023-03-24T01:54:31.021Z,12.00
2023-03-24T01:57:02.580Z,12.00
2023-03-24T01:59:35.151Z,12.00
2023-03-24T02:02:07.014Z,11.90
2023-03-24T02:04:44.023Z,11.80
2023-03-24T02:07:19.429Z,11.80
2023-03-24T02:09:49.383Z,11.80
2023-03-24T02:12:18.254Z,11.80
2023-03-24T02:14:47.033Z,11.80
2023-03-24T02:17:30.526Z,11.80
2023-03-24T02:20:32.487Z,11.80
2023-03-24T02:23:29.110Z,11.60
2023-03-24T02:26:29.765Z,11.40
2023-03-24T02:29:13.111Z,11.40
2023-03-24T02:32:15.988Z,11.40
2023-03-24T02:35:08.842Z,11.40
2023-03-24T02:38:07.782Z,11.50
2023-03-24T02:40:41.463Z,11.50
2023-03-24T02:43:17.885Z,11.50
2023-03-24T02:45:56.970Z,11.50
2023-03-24T02:48:30.756Z,11.40
2023-03-24T02:51:09.994Z,11.40
2023-03-24T02:53:49.255Z,11.40
2023-03-24T02:56:24.200Z,11.40
2023-03-24T02:58:58.327Z,11.30
2023-03-24T03:01:32.462Z,11.30
2023-03-24T03:04:04.743Z,11.30
2023-03-24T03:06:36.479Z,11.40
2023-03-24T03:09:09.428Z,11.30
2023-03-24T03:11:40.548Z,11.30
2023-03-24T03:14:14.443Z,11.30
2023-03-24T03:16:48.245Z,11.40
2023-03-24T03:19:20.985Z,11.30
2023-03-24T03:21:51.171Z,11.30
2023-03-24T03:24:27.587Z,11.40
2023-03-24T03:27:02.437Z,11.30
2023-03-24T03:29:35.514Z,11.40
2023-03-24T03:32:07.940Z,11.30
2023-03-24T03:34:42.411Z,11.30
2023-03-24T03:37:17.348Z,11.30
2023-03-24T03:39:51.296Z,11.30
2023-03-24T03:42:21.247Z,11.30
2023-03-24T03:44:49.680Z,11.40
2023-03-24T03:47:19.108Z,11.40
2023-03-24T03:49:47.820Z,11.40
2023-03-24T03:52:17.257Z,11.40
2023-03-24T03:54:46.316Z,11.40
2023-03-24T03:57:15.924Z,11.40
2023-03-24T03:59:45.888Z,11.30
2023-03-24T04:02:30.352Z,11.30
2023-03-24T04:05:35.366Z,11.30
2023-03-24T04:08:23.714Z,11.20
2023-03-24T04:11:20.759Z,11.20
2023-03-24T04:14:00.317Z,11.30
2023-03-24T04:16:41.482Z,11.40
2023-03-24T04:19:23.301Z,11.30
2023-03-24T04:22:04.715Z,11.30
2023-03-24T04:24:44.168Z,11.20
2023-03-24T04:27:21.798Z,11.30
2023-03-24T04:29:58.968Z,11.20
2023-03-24T04:32:36.613Z,11.20
2023-03-24T04:35:11.597Z,11.20
2023-03-24T04:37:40.858Z,11.20
2023-03-24T04:40:12.628Z,11.10
2023-03-24T04:42:45.476Z,11.10
2023-03-24T04:45:15.300Z,11.20
2023-03-24T04:47:49.926Z,11.10
2023-03-24T04:50:31.122Z,11.00
2023-03-24T04:53:00.539Z,11.00
2023-03-24T04:55:46.198Z,10.90
2023-03-24T04:58:14.843Z,11.00
2023-03-24T05:00:44.357Z,10.90
2023-03-24T05:03:17.024Z,10.90
2023-03-24T05:05:46.957Z,10.80
2023-03-24T05:08:16.451Z,10.80
2023-03-24T05:10:45.024Z,10.80
2023-03-24T05:13:14.191Z,10.80
2023-03-24T05:15:42.618Z,10.80
2023-03-24T05:18:11.434Z,10.80
2023-03-24T05:20:41.225Z,10.80
2023-03-24T05:23:09.631Z,10.80
2023-03-24T05:25:38.204Z,10.70
2023-03-24T05:28:06.831Z,10.80
2023-03-24T05:30:35.373Z,10.80
2023-03-24T05:33:04.021Z,10.70
2023-03-24T05:35:32.536Z,10.60
2023-03-24T05:38:02.146Z,10.60
2023-03-24T05:40:30.592Z,10.60
2023-03-24T05:42:58.793Z,10.60
2023-03-24T05:45:27.273Z,10.60
2023-03-24T05:47:55.850Z,10.60
2023-03-24T05:50:24.713Z,10.60
2023-03-24T05:52:53.612Z,10.50
2023-03-24T05:55:23.441Z,10.50
2023-03-24T05:57:52.280Z,10.60
2023-03-24T06:00:23.408Z,10.50
2023-03-24T06:02:52.407Z,10.50
2023-03-24T06:05:21.079Z,10.50
2023-03-24T06:07:49.281Z,10.50
2023-03-24T06:10:18.442Z,10.50
2023-03-24T06:12:48.188Z,10.70
2023-03-24T06:15:17.576Z,10.70
2023-03-24T06:17:46.971Z,10.70
2023-03-24T06:20:18.117Z,10.70
2023-03-24T06:22:48.422Z,10.80
2023-03-24T06:25:20.412Z,10.80
2023-03-24T06:27:50.225Z,10.80
2023-03-24T06:30:19.416Z,10.80
2023-03-24T06:32:47.912Z,10.90
2023-03-24T06:35:17.409Z,10.90
2023-03-24T06:37:46.044Z,11.00
2023-03-24T06:40:15.431Z,11.20
2023-03-24T06:42:43.676Z,11.40
2023-03-24T06:45:13.528Z,11.50
2023-03-24T06:47:41.836Z,11.50
2023-03-24T06:50:10.969Z,11.60
2023-03-24T06:52:39.577Z,11.60
2023-03-24T06:55:08.884Z,11.50
2023-03-24T06:57:37.215Z,11.50
2023-03-24T07:00:07.173Z,11.50
2023-03-24T07:02:37.115Z,11.50
2023-03-24T07:05:08.619Z,11.60
2023-03-24T07:10:09.377Z,11.70
2023-03-24T07:12:37.654Z,11.70
2023-03-24T07:15:07.357Z,11.70
2023-03-24T07:17:37.671Z,11.80
2023-03-24T07:20:08.417Z,11.80
2023-03-24T07:22:37.725Z,11.80
2023-03-24T07:25:08.067Z,11.80
2023-03-24T07:27:39.416Z,11.70
2023-03-24T07:30:10.393Z,11.70
2023-03-24T07:32:40.463Z,11.80
2023-03-24T07:35:11.891Z,12.10
2023-03-24T07:37:40.644Z,12.50
2023-03-24T07:40:12.363Z,13.10
2023-03-24T07:42:42.161Z,13.50
2023-03-24T07:45:11.861Z,13.80
2023-03-24T07:47:44.724Z,14.00
2023-03-24T07:50:14.206Z,13.90
2023-03-24T07:52:43.771Z,13.80
2023-03-24T07:55:13.618Z,13.80
2023-03-24T07:57:42.721Z,13.80
2023-03-24T08:00:16.333Z,13.70
2023-03-24T08:02:47.576Z,13.40
2023-03-24T08:05:16.733Z,13.30
2023-03-24T08:07:50.731Z,13.50
2023-03-24T08:10:20.695Z,13.60
2023-03-24T08:12:49.505Z,13.60
2023-03-24T08:15:18.402Z,13.60
2023-03-24T08:17:49.769Z,13.50
2023-03-24T08:20:20.088Z,13.60
2023-03-24T08:22:50.774Z,13.60
2023-03-24T08:25:20.274Z,13.60
2023-03-24T08:27:49.080Z,13.60
2023-03-24T08:30:19.131Z,13.40
2023-03-24T08:32:51.633Z,13.40
2023-03-24T08:35:22.157Z,13.40
2023-03-24T08:37:50.690Z,13.40
2023-03-24T08:40:23.668Z,13.60
2023-03-24T08:42:53.415Z,13.70
2023-03-24T08:45:24.002Z,13.70
2023-03-24T08:47:55.287Z,13.60
2023-03-24T08:50:25.980Z,13.40
2023-03-24T08:52:56.659Z,13.30
2023-03-24T08:55:26.534Z,13.30
2023-03-24T08:57:55.116Z,13.20
2023-03-24T09:00:23.760Z,13.30
2023-03-24T09:02:55.326Z,13.30
2023-03-24T09:05:40.947Z,13.40
2023-03-24T09:08:13.032Z,13.60
2023-03-24T09:10:41.706Z,13.60
2023-03-24T09:13:10.448Z,13.80
2023-03-24T09:15:40.549Z,14.00
2023-03-24T09:18:10.530Z,14.20
2023-03-24T09:20:38.696Z,14.20
2023-03-24T09:23:07.140Z,14.20
2023-03-24T09:25:35.677Z,14.20
2023-03-24T09:28:03.956Z,14.50
2023-03-24T09:30:46.591Z,15.10
2023-03-24T09:33:16.520Z,15.40
2023-03-24T09:35:45.040Z,15.60
2023-03-24T09:38:13.245Z,15.50
2023-03-24T09:40:43.770Z,15.40
2023-03-24T09:43:25.431Z,15.20
2023-03-24T09:45:57.133Z,15.00
2023-03-24T09:48:35.535Z,15.00
2023-03-24T09:51:08.202Z,15.00
2023-03-24T09:53:45.235Z,15.00
2023-03-24T09:56:16.299Z,14.80
2023-03-24T09:58:47.142Z,14.70
2023-03-24T10:01:16.599Z,14.70
2023-03-24T10:03:47.302Z,14.70
2023-03-24T10:06:23.473Z,14.70
2023-03-24T10:08:56.439Z,14.60
2023-03-24T10:11:30.504Z,14.60
2023-03-24T10:14:14.070Z,14.50
2023-03-24T10:16:51.675Z,14.50
2023-03-24T10:19:33.532Z,14.60
2023-03-24T10:22:10.993Z,14.60
2023-03-24T10:24:48.222Z,14.40
2023-03-24T10:27:23.818Z,14.30
2023-03-24T10:29:55.984Z,14.40
2023-03-24T10:32:29.101Z,14.30
2023-03-24T10:35:07.578Z,14.20
2023-03-24T10:37:36.973Z,14.00
2023-03-24T10:40:16.773Z,13.90
2023-03-24T10:42:48.694Z,13.90
2023-03-24T10:45:28.174Z,13.90
2023-03-24T10:48:00.024Z,13.80
2023-03-24T10:50:31.548Z,13.60
2023-03-24T10:52:59.870Z,13.20
2023-03-24T10:55:32.691Z,12.90
2023-03-24T10:58:02.063Z,12.60
2023-03-24T11:00:32.156Z,12.30
2023-03-24T11:03:02.858Z,12.20
2023-03-24T11:05:35.466Z,12.10
2023-03-24T11:08:21.116Z,12.00
2023-03-24T11:10:49.446Z,12.00
2023-03-24T11:13:20.453Z,12.30
2023-03-24T11:15:58.241Z,12.50
2023-03-24T11:18:26.429Z,12.70
2023-03-24T11:21:01.101Z,12.90
2023-03-24T11:23:32.452Z,13.10
2023-03-24T11:26:10.860Z,13.40
2023-03-24T11:28:41.875Z,13.60
2023-03-24T11:31:12.009Z,13.80
2023-03-24T11:33:46.632Z,13.90
2023-03-24T11:36:47.397Z,14.10
2023-03-24T11:39:19.605Z,14.20
2023-03-24T11:42:01.404Z,14.10
2023-03-24T11:44:33.618Z,14.00
2023-03-24T11:47:08.413Z,13.90
2023-03-24T11:49:43.119Z,13.70
2023-03-24T11:52:22.008Z,13.50
2023-03-24T11:54:50.719Z,13.40
2023-03-24T11:57:29.379Z,13.20
2023-03-24T12:00:04.855Z,12.90
2023-03-24T12:02:50.742Z,12.80
2023-03-24T12:05:27.957Z,12.70
2023-03-24T12:08:14.637Z,12.60
2023-03-24T12:10:54.364Z,12.80
2023-03-24T12:13:33.434Z,13.30
2023-03-24T12:16:13.232Z,13.90
2023-03-24T12:18:52.907Z,14.50
2023-03-24T12:21:33.432Z,14.90
2023-03-24T12:24:13.628Z,14.90
2023-03-24T12:26:43.969Z,14.80
2023-03-24T12:29:38.601Z,14.70
2023-03-24T12:32:38.019Z,14.30
2023-03-24T12:35:32.601Z,14.20
2023-03-24T12:38:14.862Z,14.10
2023-03-24T12:41:15.770Z,13.90
2023-03-24T12:43:51.551Z,13.70
2023-03-24T12:46:44.848Z,13.50
2023-03-24T12:49:38.284Z,13.90
2023-03-24T12:52:23.120Z,14.30
2023-03-24T12:54:56.404Z,14.80
2023-03-24T12:57:29.558Z,15.20
2023-03-24T13:00:02.431Z,15.50
2023-03-24T13:02:35.700Z,15.60
2023-03-24T13:05:09.294Z,15.80
2023-03-24T13:07:39.520Z,16.00
2023-03-24T13:10:15.130Z,16.10
2023-03-24T13:12:50.347Z,16.20
2023-03-24T13:15:22.069Z,16.20
2023-03-24T13:17:54.842Z,16.10
2023-03-24T13:20:27.333Z,15.70
2023-03-24T13:22:57.204Z,15.40
2023-03-24T13:25:33.906Z,15.30
2023-03-24T13:28:11.432Z,15.00
2023-03-24T13:30:42.072Z,15.00
2023-03-24T13:33:16.062Z,14.80
2023-03-24T13:36:03.079Z,14.50
2023-03-24T13:38:38.413Z,14.40
2023-03-24T13:41:08.357Z,14.40
2023-03-24T13:43:37.956Z,14.40
2023-03-24T13:46:10.882Z,14.50
2023-03-24T13:48:41.889Z,14.50
2023-03-24T13:51:18.428Z,14.50
2023-03-24T13:53:53.004Z,14.60
2023-03-24T13:56:28.122Z,14.80
2023-03-24T13:59:26.994Z,15.00
2023-03-24T14:02:24.796Z,15.10
2023-03-24T14:05:05.487Z,15.40
2023-03-24T14:07:44.914Z,15.70
2023-03-24T14:10:39.350Z,15.80
2023-03-24T14:13:24.075Z,16.00
2023-03-24T14:15:54.838Z,16.00
2023-03-24T14:18:44.263Z,15.90
2023-03-24T14:21:12.553Z,16.00
2023-03-24T14:23:43.340Z,16.00
2023-03-24T14:26:16.485Z,16.00
2023-03-24T14:28:46.755Z,16.10
2023-03-24T14:31:25.553Z,16.20
2023-03-24T14:34:03.602Z,16.20
2023-03-24T14:36:34.057Z,16.40
2023-03-24T14:39:13.267Z,16.50
2023-03-24T14:41:44.604Z,16.50
2023-03-24T14:44:13.325Z,16.40
2023-03-24T14:46:44.854Z,16.30
2023-03-24T14:49:26.005Z,16.30
2023-03-24T14:52:12.259Z,16.00
2023-03-24T14:54:46.188Z,15.90
2023-03-24T14:57:21.431Z,16.10
2023-03-24T14:59:55.975Z,16.20
2023-03-24T15:02:37.104Z,16.20
2023-03-24T15:05:25.136Z,16.20
2023-03-24T15:08:16.803Z,16.10
2023-03-24T15:10:49.896Z,16.00
2023-03-24T15:13:35.446Z,15.90
2023-03-24T15:16:07.718Z,15.80
2023-03-24T15:18:42.200Z,15.60
2023-03-24T15:21:27.306Z,15.50
2023-03-24T15:23:56.925Z,15.40
2023-03-24T15:26:26.915Z,15.40
2023-03-24T15:29:00.564Z,15.40
2023-03-24T15:31:31.229Z,15.30
2023-03-24T15:34:09.530Z,15.20
2023-03-24T15:36:45.694Z,15.20
2023-03-24T15:39:22.177Z,15.30
2023-03-24T15:41:53.300Z,15.20
2023-03-24T15:44:22.692Z,15.20
2023-03-24T15:46:51.466Z,15.20
2023-03-24T15:49:26.388Z,15.10
2023-03-24T15:51:59.721Z,15.00
2023-03-24T15:54:31.008Z,14.80
2023-03-24T15:57:04.895Z,14.80
2023-03-24T15:59:37.769Z,14.80
2023-03-24T16:02:13.397Z,14.70
2023-03-24T16:04:43.332Z,14.70
2023-03-24T16:07:29.797Z,14.70
2023-03-24T16:10:04.587Z,14.70
2023-03-24T16:12:34.754Z,14.60
2023-03-24T16:15:05.775Z,14.50
2023-03-24T16:17:34.456Z,14.40
2023-03-24T16:20:09.141Z,14.30
2023-03-24T16:22:37.503Z,14.20
2023-03-24T16:25:06.339Z,14.10
2023-03-24T16:27:34.817Z,14.10
2023-03-24T16:30:03.737Z,13.90
2023-03-24T16:32:32.251Z,13.70
2023-03-24T16:35:00.698Z,13.50
2023-03-24T16:37:31.263Z,13.50
2023-03-24T16:40:00.818Z,13.30
2023-03-24T16:42:30.934Z,13.20
2023-03-24T16:44:59.082Z,13.00
2023-03-24T16:47:27.271Z,13.00
2023-03-24T16:49:55.589Z,12.90
2023-03-24T16:52:23.733Z,12.90
2023-03-24T16:54:54.368Z,12.90
2023-03-24T16:57:22.864Z,12.70
2023-03-24T16:59:51.028Z,12.40
2023-03-24T17:02:19.277Z,12.10
2023-03-24T17:04:48.011Z,12.10
2023-03-24T17:07:16.155Z,12.10
2023-03-24T17:09:46.305Z,12.10
2023-03-24T17:12:16.608Z,12.10
2023-03-24T17:14:45.449Z,12.10
2023-03-24T17:17:13.743Z,12.10
2023-03-24T17:19:44.346Z,12.10
2023-03-24T17:22:17.310Z,12.20
2023-03-24T17:24:48.199Z,12.20
2023-03-24T17:27:21.208Z,12.20
2023-03-24T17:29:49.927Z,12.20
2023-03-24T17:32:19.937Z,12.20
2023-03-24T17:34:50.463Z,12.20
2023-03-24T17:37:18.631Z,12.30
2023-03-24T17:39:46.795Z,12.20
2023-03-24T17:42:15.034Z,12.10
2023-03-24T17:44:44.645Z,12.10
2023-03-24T17:47:12.854Z,12.00
2023-03-24T17:49:41.594Z,12.00
2023-03-24T17:52:09.795Z,12.00
2023-03-24T17:54:38.002Z,11.90
2023-03-24T17:57:06.663Z,11.80
2023-03-24T17:59:35.058Z,11.80
2023-03-24T18:02:05.250Z,11.80
2023-03-24T18:04:34.233Z,11.90
2023-03-24T18:07:02.885Z,11.90
2023-03-24T18:09:33.626Z,11.80
2023-03-24T18:12:02.176Z,11.70
2023-03-24T18:14:30.329Z,11.70
2023-03-24T18:16:58.576Z,11.70
2023-03-24T18:19:28.326Z,11.60
2023-03-24T18:21:56.526Z,11.60
2023-03-24T18:24:25.819Z,11.60
2023-03-24T18:26:54.047Z,11.60
2023-03-24T18:29:23.082Z,11.60
2023-03-24T18:31:51.535Z,11.50
2023-03-24T18:34:19.834Z,11.40
2023-03-24T18:36:50.215Z,11.50
2023-03-24T18:39:18.789Z,11.40
2023-03-24T18:41:49.072Z,11.40
2023-03-24T18:44:17.774Z,11.40
2023-03-24T18:46:45.991Z,11.30
2023-03-24T18:49:15.069Z,11.20
2023-03-24T18:51:43.602Z,11.30
2023-03-24T18:54:13.689Z,11.40
2023-03-24T18:56:42.443Z,11.30
2023-03-24T18:59:11.663Z,11.40
2023-03-24T19:01:40.131Z,11.20
2023-03-24T19:04:09.600Z,11.10
2023-03-24T19:06:42.310Z,11.20
2023-03-24T19:09:13.670Z,11.10
2023-03-24T19:11:43.512Z,11.10
2023-03-24T19:14:11.824Z,11.10
2023-03-24T19:16:40.242Z,11.00
2023-03-24T19:19:09.919Z,11.10
2023-03-24T19:21:38.417Z,11.20
2023-03-24T19:24:07.255Z,11.20
2023-03-24T19:26:36.870Z,11.10
2023-03-24T19:29:05.151Z,11.20
2023-03-24T19:31:35.393Z,11.20
2023-03-24T19:34:03.717Z,11.10
2023-03-24T19:36:31.939Z,11.10
2023-03-24T19:39:00.162Z,11.10
2023-03-24T19:41:28.595Z,11.00
2023-03-24T19:43:58.234Z,10.90
2023-03-24T19:46:26.663Z,10.80
2023-03-24T19:48:54.883Z,10.70
2023-03-24T19:51:24.238Z,10.60
2023-03-24T19:53:52.581Z,10.50
2023-03-24T19:56:21.832Z,10.50
2023-03-24T19:58:50.022Z,10.50
2023-03-24T20:01:21.587Z,10.50
2023-03-24T20:03:49.956Z,10.50
2023-03-24T20:06:19.801Z,10.50
2023-03-24T20:08:48.309Z,10.40
2023-03-24T20:11:16.794Z,10.40
2023-03-24T20:13:45.013Z,10.40
2023-03-24T20:16:13.422Z,10.40
2023-03-24T20:18:42.997Z,10.40
2023-03-24T20:21:13.749Z,10.40
2023-03-24T20:23:42.150Z,10.40
2023-03-24T20:26:10.385Z,10.30
2023-03-24T20:28:38.547Z,10.30
2023-03-24T20:31:07.251Z,10.30
2023-03-24T20:33:36.008Z,10.30
2023-03-24T20:36:06.428Z,10.30
2023-03-24T20:38:34.802Z,10.30
2023-03-24T20:41:05.250Z,10.30
2023-03-24T20:43:36.455Z,10.30
2023-03-24T20:46:05.505Z,10.10
2023-03-24T20:48:34.038Z,10.10
2023-03-24T20:51:03.747Z,10.10
2023-03-24T20:53:35.063Z,10.10
2023-03-24T20:56:06.786Z,10.10
2023-03-24T20:58:35.911Z,10.00
2023-03-24T21:01:08.172Z,10.10
2023-03-24T21:03:37.175Z,10.20
2023-03-24T21:06:06.004Z,10.20
2023-03-24T21:08:37.762Z,10.20
2023-03-24T21:11:06.563Z,10.20
2023-03-24T21:13:37.442Z,10.30
2023-03-24T21:16:08.737Z,10.20
2023-03-24T21:18:37.560Z,10.20
2023-03-24T21:21:07.074Z,10.10
2023-03-24T21:23:39.433Z,10.10
2023-03-24T21:26:09.228Z,10.10
2023-03-24T21:28:37.555Z,10.10
2023-03-24T21:31:09.462Z,10.20
2023-03-24T21:33:40.230Z,10.20
2023-03-24T21:36:09.922Z,10.10
2023-03-24T21:38:40.281Z,10.00
2023-03-24T21:41:08.984Z,10.00
2023-03-24T21:43:37.543Z,10.00
2023-03-24T21:46:06.824Z,9.90
2023-03-24T21:48:38.833Z,10.00
2023-03-24T21:51:07.626Z,10.00
2023-03-24T21:53:35.994Z,10.00
2023-03-24T21:56:06.188Z,10.10
2023-03-24T21:58:35.091Z,10.00
2023-03-24T22:01:04.059Z,10.00
2023-03-24T22:03:34.735Z,10.10
2023-03-24T22:06:03.503Z,10.10
2023-03-24T22:08:31.836Z,10.20
2023-03-24T22:11:04.532Z,10.10
2023-03-24T22:13:34.996Z,10.10
2023-03-24T22:16:05.734Z,10.10
2023-03-24T22:18:35.461Z,10.10
2023-03-24T22:21:07.250Z,10.20
2023-03-24T22:23:38.148Z,10.10
2023-03-24T22:26:09.215Z,10.00
2023-03-24T22:28:39.275Z,10.10
2023-03-24T22:31:09.627Z,10.10
2023-03-24T22:33:38.782Z,10.10
2023-03-24T22:36:08.353Z,10.00
2023-03-24T22:38:37.099Z,10.00
2023-03-24T22:41:07.939Z,10.00
2023-03-24T22:43:39.597Z,10.00
2023-03-24T22:46:08.535Z,10.10
2023-03-24T22:48:36.786Z,10.00
2023-03-24T22:51:05.700Z,10.00
2023-03-24T22:53:34.352Z,10.10
2023-03-24T22:56:02.660Z,10.10
2023-03-24T22:58:30.802Z,10.10
2023-03-24T23:01:00.631Z,10.10
2023-03-24T23:03:28.905Z,10.10
2023-03-24T23:06:01.886Z,10.10
2023-03-24T23:08:31.026Z,10.10
2023-03-24T23:11:00.409Z,10.10
2023-03-24T23:13:31.124Z,10.00
2023-03-24T23:16:00.789Z,10.00
2023-03-24T23:18:29.385Z,9.90
2023-03-24T23:21:04.170Z,9.90
2023-03-24T23:23:32.538Z,9.80
2023-03-24T23:26:01.099Z,9.80
2023-03-24T23:28:29.366Z,9.80
2023-03-24T23:30:58.093Z,9.80
2023-03-24T23:33:28.265Z,9.70
2023-03-24T23:35:59.580Z,9.70
2023-03-24T23:38:28.387Z,9.60
2023-03-24T23:40:56.556Z,9.60
2023-03-24T23:43:24.950Z,9.60
2023-03-24T23:45:56.279Z,9.70
2023-03-24T23:48:24.816Z,9.60
2023-03-24T23:50:58.987Z,9.60
2023-03-24T23:53:27.979Z,9.60
2023-03-24T23:55:57.469Z,9.60
2023-03-24T23:58:27.205Z,9.50
